Pagina principale
METAR-TAF:

METAR-TAF

Aeroporti :

Fiume, Croazia

latitudine: 45-13N, longitudine: 014-35E, altezza: 85 m

Osservazione

Il bollettino è stato emesso 26 minuti fa, alle 14:30 UTC
Vento 4 kt da ovest, variando fra sud/sud-ovest e ovest/nord-ovest
Temperature 28°C
Umidità 45%
Pressione 1016 hPa
Visibilità 10 km o più
Poco nuvoloso ad un'altezza di 5000 ft

METAR: LDRI 171430Z 26004KT 210V290 9999 FEW050 28/15 Q1016

Ora: 16:56 (14:56 UTC)

Previsione

Il bollettino è stato emesso 3 ore e 31 minuti fa, alle 11:25 UTC
Previsione valida dal 17 alle 12 UTC al 18 alle 12 UTC
Vento 2 kt da direzioni variabili
Visibilità 10 km o più
nessuna nube inferiore a 1500 m e nessun cumulonembo
Probabilità 40% :
Temporaneamente
dal 17 alle 12 UTC al 17 alle 15 UTC
Vento 8 kt da ovest/nord-ovest

TAF: LDRI 171125Z 1712/1812 VRB02KT CAVOK TX29/1811Z TN18/1803Z PROB40 TEMPO 1712/1715 30008KT

Osservazioni e previsioni meteorologiche di più di 4000 aeroporti (messaggi METAR e TAF).

Le stazioni disponibili sono rappresentate dai dischi gialli e rossi sulla carta.

Puntare il mouse per vedere il nome della stazione.

Clicca sopra per visualizzare le osservazioni e previsioni meteorologiche.

Per cambiare la mappa : fare clic sui pulsanti verdi con una croce nera per ingrandire, il pulsante verde con un trattino per diminuire, o sulla freccia verde per le mappe adiacenti.


METAR-TAF: